sensor_id;sensor_type;location;lat;lon;timestamp;temperature;humidity
76291;DHT22;65100;46.884;17.410;2023-04-15T00:00:27;7.31;90.52
76291;DHT22;65100;46.884;17.410;2023-04-15T00:02:53;7.28;90.73
76291;DHT22;65100;46.884;17.410;2023-04-15T00:05:19;7.25;90.94
76291;DHT22;65100;46.884;17.410;2023-04-15T00:07:45;7.08;91.40
76291;DHT22;65100;46.884;17.410;2023-04-15T00:10:11;7.08;91.39
76291;DHT22;65100;46.884;17.410;2023-04-15T00:12:36;7.00;91.28
76291;DHT22;65100;46.884;17.410;2023-04-15T00:15:02;7.28;90.20
76291;DHT22;65100;46.884;17.410;2023-04-15T00:17:28;7.04;91.69
76291;DHT22;65100;46.884;17.410;2023-04-15T00:19:53;6.95;91.69
76291;DHT22;65100;46.884;17.410;2023-04-15T00:22:19;6.84;92.25
76291;DHT22;65100;46.884;17.410;2023-04-15T00:24:44;6.70;92.55
76291;DHT22;65100;46.884;17.410;2023-04-15T00:27:10;6.66;92.83
76291;DHT22;65100;46.884;17.410;2023-04-15T00:29:35;6.81;92.81
76291;DHT22;65100;46.884;17.410;2023-04-15T00:32:01;6.91;92.60
76291;DHT22;65100;46.884;17.410;2023-04-15T00:34:27;7.03;92.18
76291;DHT22;65100;46.884;17.410;2023-04-15T00:36:53;7.24;92.01
76291;DHT22;65100;46.884;17.410;2023-04-15T00:39:19;7.15;92.50
76291;DHT22;65100;46.884;17.410;2023-04-15T00:41:45;6.98;92.10
76291;DHT22;65100;46.884;17.410;2023-04-15T00:44:11;6.93;92.24
76291;DHT22;65100;46.884;17.410;2023-04-15T00:46:37;7.07;92.35
76291;DHT22;65100;46.884;17.410;2023-04-15T00:49:06;7.08;92.12
76291;DHT22;65100;46.884;17.410;2023-04-15T00:51:34;7.04;92.49
76291;DHT22;65100;46.884;17.410;2023-04-15T00:54:03;7.15;92.98
76291;DHT22;65100;46.884;17.410;2023-04-15T00:56:29;7.12;92.14
76291;DHT22;65100;46.884;17.410;2023-04-15T00:58:56;7.09;92.55
76291;DHT22;65100;46.884;17.410;2023-04-15T01:01:42;7.27;92.92
76291;DHT22;65100;46.884;17.410;2023-04-15T01:04:29;7.32;92.46
76291;DHT22;65100;46.884;17.410;2023-04-15T01:06:56;7.36;92.54
76291;DHT22;65100;46.884;17.410;2023-04-15T01:09:21;7.22;91.79
76291;DHT22;65100;46.884;17.410;2023-04-15T01:11:47;7.29;92.30
76291;DHT22;65100;46.884;17.410;2023-04-15T01:14:12;7.34;92.01
76291;DHT22;65100;46.884;17.410;2023-04-15T01:16:38;7.29;91.39
76291;DHT22;65100;46.884;17.410;2023-04-15T01:19:10;7.39;91.70
76291;DHT22;65100;46.884;17.410;2023-04-15T01:21:36;7.17;91.94
76291;DHT22;65100;46.884;17.410;2023-04-15T01:24:09;7.36;92.83
76291;DHT22;65100;46.884;17.410;2023-04-15T01:26:39;7.31;92.89
76291;DHT22;65100;46.884;17.410;2023-04-15T01:29:05;7.47;92.84
76291;DHT22;65100;46.884;17.410;2023-04-15T01:31:31;7.42;92.42
76291;DHT22;65100;46.884;17.410;2023-04-15T01:33:58;7.49;92.16
76291;DHT22;65100;46.884;17.410;2023-04-15T01:36:24;7.34;92.62
76291;DHT22;65100;46.884;17.410;2023-04-15T01:38:50;7.45;92.57
76291;DHT22;65100;46.884;17.410;2023-04-15T01:41:15;7.41;92.45
76291;DHT22;65100;46.884;17.410;2023-04-15T01:43:41;7.29;92.37
76291;DHT22;65100;46.884;17.410;2023-04-15T01:46:07;7.39;92.95
76291;DHT22;65100;46.884;17.410;2023-04-15T01:48:32;7.39;93.02
76291;DHT22;65100;46.884;17.410;2023-04-15T01:50:58;7.56;92.71
76291;DHT22;65100;46.884;17.410;2023-04-15T01:53:24;7.61;92.81
76291;DHT22;65100;46.884;17.410;2023-04-15T01:55:50;7.58;92.79
76291;DHT22;65100;46.884;17.410;2023-04-15T01:58:17;7.45;92.38
76291;DHT22;65100;46.884;17.410;2023-04-15T02:00:43;7.48;92.60
76291;DHT22;65100;46.884;17.410;2023-04-15T02:03:08;7.45;92.87
76291;DHT22;65100;46.884;17.410;2023-04-15T02:05:34;7.62;92.27
76291;DHT22;65100;46.884;17.410;2023-04-15T02:08:00;7.69;92.58
76291;DHT22;65100;46.884;17.410;2023-04-15T02:10:25;7.63;92.12
76291;DHT22;65100;46.884;17.410;2023-04-15T02:12:51;7.61;92.54
76291;DHT22;65100;46.884;17.410;2023-04-15T02:15:18;7.58;92.71
76291;DHT22;65100;46.884;17.410;2023-04-15T02:17:44;7.52;92.98
76291;DHT22;65100;46.884;17.410;2023-04-15T02:20:15;7.59;92.97
76291;DHT22;65100;46.884;17.410;2023-04-15T02:22:41;7.69;92.86
76291;DHT22;65100;46.884;17.410;2023-04-15T02:25:07;7.47;92.68
76291;DHT22;65100;46.884;17.410;2023-04-15T02:27:34;7.56;93.21
76291;DHT22;65100;46.884;17.410;2023-04-15T02:30:00;7.73;93.02
76291;DHT22;65100;46.884;17.410;2023-04-15T02:32:25;7.79;93.08
76291;DHT22;65100;46.884;17.410;2023-04-15T02:34:51;7.76;92.75
76291;DHT22;65100;46.884;17.410;2023-04-15T02:37:17;7.62;92.90
76291;DHT22;65100;46.884;17.410;2023-04-15T02:39:44;7.79;92.68
76291;DHT22;65100;46.884;17.410;2023-04-15T02:42:10;7.73;92.06
76291;DHT22;65100;46.884;17.410;2023-04-15T02:44:35;7.63;93.04
76291;DHT22;65100;46.884;17.410;2023-04-15T02:47:01;7.73;92.91
76291;DHT22;65100;46.884;17.410;2023-04-15T02:49:27;7.73;92.62
76291;DHT22;65100;46.884;17.410;2023-04-15T02:51:55;7.69;92.28
76291;DHT22;65100;46.884;17.410;2023-04-15T02:54:24;7.81;93.27
76291;DHT22;65100;46.884;17.410;2023-04-15T02:56:50;7.59;93.10
76291;DHT22;65100;46.884;17.410;2023-04-15T02:59:16;7.75;93.17
76291;DHT22;65100;46.884;17.410;2023-04-15T03:01:41;7.62;92.40
76291;DHT22;65100;46.884;17.410;2023-04-15T03:04:07;7.55;93.56
76291;DHT22;65100;46.884;17.410;2023-04-15T03:06:34;7.61;93.09
76291;DHT22;65100;46.884;17.410;2023-04-15T03:08:59;7.71;93.21
76291;DHT22;65100;46.884;17.410;2023-04-15T03:11:28;7.63;93.10
76291;DHT22;65100;46.884;17.410;2023-04-15T03:13:54;7.78;92.81
76291;DHT22;65100;46.884;17.410;2023-04-15T03:16:19;7.79;92.36
76291;DHT22;65100;46.884;17.410;2023-04-15T03:18:45;7.66;93.83
76291;DHT22;65100;46.884;17.410;2023-04-15T03:21:11;7.82;93.41
76291;DHT22;65100;46.884;17.410;2023-04-15T03:23:36;7.75;92.97
76291;DHT22;65100;46.884;17.410;2023-04-15T03:26:02;7.66;92.98
76291;DHT22;65100;46.884;17.410;2023-04-15T03:28:29;7.82;93.21
76291;DHT22;65100;46.884;17.410;2023-04-15T03:30:55;7.76;93.38
76291;DHT22;65100;46.884;17.410;2023-04-15T03:33:20;7.85;92.94
76291;DHT22;65100;46.884;17.410;2023-04-15T03:35:46;7.75;93.03
76291;DHT22;65100;46.884;17.410;2023-04-15T03:38:11;7.79;92.97
76291;DHT22;65100;46.884;17.410;2023-04-15T03:40:39;7.54;93.11
76291;DHT22;65100;46.884;17.410;2023-04-15T03:43:05;7.69;93.27
76291;DHT22;65100;46.884;17.410;2023-04-15T03:45:30;7.83;93.52
76291;DHT22;65100;46.884;17.410;2023-04-15T03:47:56;7.72;93.00
76291;DHT22;65100;46.884;17.410;2023-04-15T03:50:21;7.72;93.83
76291;DHT22;65100;46.884;17.410;2023-04-15T03:52:47;7.82;93.60
76291;DHT22;65100;46.884;17.410;2023-04-15T03:55:12;7.82;93.62
76291;DHT22;65100;46.884;17.410;2023-04-15T03:57:38;7.59;93.39
76291;DHT22;65100;46.884;17.410;2023-04-15T04:00:05;7.71;94.03
76291;DHT22;65100;46.884;17.410;2023-04-15T04:02:31;7.61;94.26
76291;DHT22;65100;46.884;17.410;2023-04-15T04:04:56;7.69;94.21
76291;DHT22;65100;46.884;17.410;2023-04-15T04:07:22;7.68;93.77
76291;DHT22;65100;46.884;17.410;2023-04-15T04:09:48;7.75;93.69
76291;DHT22;65100;46.884;17.410;2023-04-15T04:12:14;7.73;93.23
76291;DHT22;65100;46.884;17.410;2023-04-15T04:14:39;7.81;93.72
76291;DHT22;65100;46.884;17.410;2023-04-15T04:17:05;7.90;93.44
76291;DHT22;65100;46.884;17.410;2023-04-15T04:19:31;7.71;93.08
76291;DHT22;65100;46.884;17.410;2023-04-15T04:21:56;7.75;93.46
76291;DHT22;65100;46.884;17.410;2023-04-15T04:24:22;7.72;93.80
76291;DHT22;65100;46.884;17.410;2023-04-15T04:26:47;7.69;93.94
76291;DHT22;65100;46.884;17.410;2023-04-15T04:29:13;7.76;93.76
76291;DHT22;65100;46.884;17.410;2023-04-15T04:31:38;7.81;93.66
76291;DHT22;65100;46.884;17.410;2023-04-15T04:34:04;7.65;93.56
76291;DHT22;65100;46.884;17.410;2023-04-15T04:36:29;7.76;93.12
76291;DHT22;65100;46.884;17.410;2023-04-15T04:38:55;7.61;93.50
76291;DHT22;65100;46.884;17.410;2023-04-15T04:41:20;7.71;94.08
76291;DHT22;65100;46.884;17.410;2023-04-15T04:43:45;7.69;92.99
76291;DHT22;65100;46.884;17.410;2023-04-15T04:46:11;7.72;92.71
76291;DHT22;65100;46.884;17.410;2023-04-15T04:48:37;7.82;92.52
76291;DHT22;65100;46.884;17.410;2023-04-15T04:51:02;7.90;92.04
76291;DHT22;65100;46.884;17.410;2023-04-15T04:53:28;7.87;92.66
76291;DHT22;65100;46.884;17.410;2023-04-15T04:55:53;7.99;92.35
76291;DHT22;65100;46.884;17.410;2023-04-15T04:58:19;7.96;92.39
76291;DHT22;65100;46.884;17.410;2023-04-15T05:00:45;7.99;92.04
76291;DHT22;65100;46.884;17.410;2023-04-15T05:03:10;7.94;92.70
76291;DHT22;65100;46.884;17.410;2023-04-15T05:05:36;8.02;92.64
76291;DHT22;65100;46.884;17.410;2023-04-15T05:08:04;8.02;92.04
76291;DHT22;65100;46.884;17.410;2023-04-15T05:10:30;8.12;91.94
76291;DHT22;65100;46.884;17.410;2023-04-15T05:12:56;8.06;92.62
76291;DHT22;65100;46.884;17.410;2023-04-15T05:15:21;8.06;92.20
76291;DHT22;65100;46.884;17.410;2023-04-15T05:17:46;7.99;92.50
76291;DHT22;65100;46.884;17.410;2023-04-15T05:20:12;8.07;91.82
76291;DHT22;65100;46.884;17.410;2023-04-15T05:22:37;8.03;92.58
76291;DHT22;65100;46.884;17.410;2023-04-15T05:25:03;7.93;92.96
76291;DHT22;65100;46.884;17.410;2023-04-15T05:27:29;7.94;92.35
76291;DHT22;65100;46.884;17.410;2023-04-15T05:29:54;8.02;92.54
76291;DHT22;65100;46.884;17.410;2023-04-15T05:32:20;7.96;92.67
76291;DHT22;65100;46.884;17.410;2023-04-15T05:34:46;8.06;93.02
76291;DHT22;65100;46.884;17.410;2023-04-15T05:37:11;8.07;92.15
76291;DHT22;65100;46.884;17.410;2023-04-15T05:39:37;8.06;92.07
76291;DHT22;65100;46.884;17.410;2023-04-15T05:42:02;8.20;92.20
76291;DHT22;65100;46.884;17.410;2023-04-15T05:44:30;8.12;92.71
76291;DHT22;65100;46.884;17.410;2023-04-15T05:46:55;8.17;92.21
76291;DHT22;65100;46.884;17.410;2023-04-15T05:49:21;8.02;92.13
76291;DHT22;65100;46.884;17.410;2023-04-15T05:51:47;8.06;92.71
76291;DHT22;65100;46.884;17.410;2023-04-15T05:54:12;8.20;92.03
76291;DHT22;65100;46.884;17.410;2023-04-15T05:56:38;8.29;92.04
76291;DHT22;65100;46.884;17.410;2023-04-15T05:59:03;8.33;91.94
76291;DHT22;65100;46.884;17.410;2023-04-15T06:01:29;8.29;91.77
76291;DHT22;65100;46.884;17.410;2023-04-15T06:03:54;8.25;92.22
76291;DHT22;65100;46.884;17.410;2023-04-15T06:06:20;8.16;92.10
76291;DHT22;65100;46.884;17.410;2023-04-15T06:08:46;8.10;92.87
76291;DHT22;65100;46.884;17.410;2023-04-15T06:11:11;8.13;92.54
76291;DHT22;65100;46.884;17.410;2023-04-15T06:13:37;8.34;91.99
76291;DHT22;65100;46.884;17.410;2023-04-15T06:16:02;8.30;92.58
76291;DHT22;65100;46.884;17.410;2023-04-15T06:18:28;8.40;91.65
76291;DHT22;65100;46.884;17.410;2023-04-15T06:20:54;8.40;92.35
76291;DHT22;65100;46.884;17.410;2023-04-15T06:23:19;8.40;92.01
76291;DHT22;65100;46.884;17.410;2023-04-15T06:25:45;8.41;91.70
76291;DHT22;65100;46.884;17.410;2023-04-15T06:28:10;8.41;92.41
76291;DHT22;65100;46.884;17.410;2023-04-15T06:30:36;8.36;92.67
76291;DHT22;65100;46.884;17.410;2023-04-15T06:33:02;8.38;91.85
76291;DHT22;65100;46.884;17.410;2023-04-15T06:35:29;8.30;92.48
76291;DHT22;65100;46.884;17.410;2023-04-15T06:37:55;8.36;92.16
76291;DHT22;65100;46.884;17.410;2023-04-15T06:40:21;8.46;91.57
76291;DHT22;65100;46.884;17.410;2023-04-15T06:42:46;8.43;91.81
76291;DHT22;65100;46.884;17.410;2023-04-15T06:45:12;8.50;91.65
76291;DHT22;65100;46.884;17.410;2023-04-15T06:47:37;8.57;92.08
76291;DHT22;65100;46.884;17.410;2023-04-15T06:50:03;8.50;91.80
76291;DHT22;65100;46.884;17.410;2023-04-15T06:52:28;8.67;92.00
76291;DHT22;65100;46.884;17.410;2023-04-15T06:54:54;8.70;91.70
76291;DHT22;65100;46.884;17.410;2023-04-15T06:57:19;8.78;91.07
76291;DHT22;65100;46.884;17.410;2023-04-15T06:59:45;8.68;91.55
76291;DHT22;65100;46.884;17.410;2023-04-15T07:02:12;8.71;91.24
76291;DHT22;65100;46.884;17.410;2023-04-15T07:04:38;8.68;91.08
76291;DHT22;65100;46.884;17.410;2023-04-15T07:07:04;8.75;91.61
76291;DHT22;65100;46.884;17.410;2023-04-15T07:09:30;8.89;91.32
76291;DHT22;65100;46.884;17.410;2023-04-15T07:11:56;8.97;90.39
76291;DHT22;65100;46.884;17.410;2023-04-15T07:14:22;8.88;90.27
76291;DHT22;65100;46.884;17.410;2023-04-15T07:16:47;8.88;91.14
76291;DHT22;65100;46.884;17.410;2023-04-15T07:19:13;9.04;91.03
76291;DHT22;65100;46.884;17.410;2023-04-15T07:21:38;9.04;91.37
76291;DHT22;65100;46.884;17.410;2023-04-15T07:24:04;9.05;90.64
76291;DHT22;65100;46.884;17.410;2023-04-15T07:26:29;9.01;90.21
76291;DHT22;65100;46.884;17.410;2023-04-15T07:28:55;9.04;90.98
76291;DHT22;65100;46.884;17.410;2023-04-15T07:31:21;9.07;90.42
76291;DHT22;65100;46.884;17.410;2023-04-15T07:33:46;9.22;90.70
76291;DHT22;65100;46.884;17.410;2023-04-15T07:36:11;9.00;90.89
76291;DHT22;65100;46.884;17.410;2023-04-15T07:38:38;9.12;91.18
76291;DHT22;65100;46.884;17.410;2023-04-15T07:41:03;9.04;90.95
76291;DHT22;65100;46.884;17.410;2023-04-15T07:43:29;8.94;92.21
76291;DHT22;65100;46.884;17.410;2023-04-15T07:45:54;9.01;91.33
76291;DHT22;65100;46.884;17.410;2023-04-15T07:48:20;8.89;91.70
76291;DHT22;65100;46.884;17.410;2023-04-15T07:50:45;9.02;91.22
76291;DHT22;65100;46.884;17.410;2023-04-15T07:53:11;9.02;91.64
76291;DHT22;65100;46.884;17.410;2023-04-15T07:55:36;9.00;91.18
76291;DHT22;65100;46.884;17.410;2023-04-15T07:58:02;8.97;91.00
76291;DHT22;65100;46.884;17.410;2023-04-15T08:00:27;9.14;90.84
76291;DHT22;65100;46.884;17.410;2023-04-15T08:02:53;9.15;91.09
76291;DHT22;65100;46.884;17.410;2023-04-15T08:05:21;9.11;90.61
76291;DHT22;65100;46.884;17.410;2023-04-15T08:07:46;8.98;90.46
76291;DHT22;65100;46.884;17.410;2023-04-15T08:10:13;9.08;91.34
76291;DHT22;65100;46.884;17.410;2023-04-15T08:12:59;9.19;89.98
76291;DHT22;65100;46.884;17.410;2023-04-15T08:15:25;9.16;90.36
76291;DHT22;65100;46.884;17.410;2023-04-15T08:17:50;9.34;90.14
76291;DHT22;65100;46.884;17.410;2023-04-15T08:20:16;9.38;90.49
76291;DHT22;65100;46.884;17.410;2023-04-15T08:22:41;9.42;89.50
76291;DHT22;65100;46.884;17.410;2023-04-15T08:25:07;9.56;87.91
76291;DHT22;65100;46.884;17.410;2023-04-15T08:27:33;9.58;87.61
76291;DHT22;65100;46.884;17.410;2023-04-15T08:29:59;9.58;88.18
76291;DHT22;65100;46.884;17.410;2023-04-15T08:32:25;9.76;89.18
76291;DHT22;65100;46.884;17.410;2023-04-15T08:34:51;9.87;88.71
76291;DHT22;65100;46.884;17.410;2023-04-15T08:37:17;9.70;87.61
76291;DHT22;65100;46.884;17.410;2023-04-15T08:39:43;9.72;88.17
76291;DHT22;65100;46.884;17.410;2023-04-15T08:42:16;9.87;87.26
76291;DHT22;65100;46.884;17.410;2023-04-15T08:44:42;9.89;88.27
76291;DHT22;65100;46.884;17.410;2023-04-15T08:47:12;9.78;87.24
76291;DHT22;65100;46.884;17.410;2023-04-15T08:49:39;9.65;87.30
76291;DHT22;65100;46.884;17.410;2023-04-15T08:52:05;9.28;89.13
76291;DHT22;65100;46.884;17.410;2023-04-15T08:54:32;9.62;88.33
76291;DHT22;65100;46.884;17.410;2023-04-15T08:56:58;9.72;87.81
76291;DHT22;65100;46.884;17.410;2023-04-15T08:59:23;9.72;86.79
76291;DHT22;65100;46.884;17.410;2023-04-15T09:01:49;9.78;86.57
76291;DHT22;65100;46.884;17.410;2023-04-15T09:04:16;9.69;86.65
76291;DHT22;65100;46.884;17.410;2023-04-15T09:06:41;9.79;86.86
76291;DHT22;65100;46.884;17.410;2023-04-15T09:09:07;9.68;87.62
76291;DHT22;65100;46.884;17.410;2023-04-15T09:11:33;9.82;86.47
76291;DHT22;65100;46.884;17.410;2023-04-15T09:13:58;9.68;86.70
76291;DHT22;65100;46.884;17.410;2023-04-15T09:16:24;9.62;86.87
76291;DHT22;65100;46.884;17.410;2023-04-15T09:18:51;9.68;86.90
76291;DHT22;65100;46.884;17.410;2023-04-15T09:21:16;9.76;86.75
76291;DHT22;65100;46.884;17.410;2023-04-15T09:23:59;9.87;87.13
76291;DHT22;65100;46.884;17.410;2023-04-15T09:26:35;9.87;86.60
76291;DHT22;65100;46.884;17.410;2023-04-15T09:29:05;10.12;85.96
76291;DHT22;65100;46.884;17.410;2023-04-15T09:31:31;10.07;84.52
76291;DHT22;65100;46.884;17.410;2023-04-15T09:33:57;9.93;85.57
76291;DHT22;65100;46.884;17.410;2023-04-15T09:36:23;9.93;85.71
76291;DHT22;65100;46.884;17.410;2023-04-15T09:38:59;10.07;85.79
76291;DHT22;65100;46.884;17.410;2023-04-15T09:41:25;10.23;84.79
76291;DHT22;65100;46.884;17.410;2023-04-15T09:43:51;10.14;84.79
76291;DHT22;65100;46.884;17.410;2023-04-15T09:46:17;10.17;84.11
76291;DHT22;65100;46.884;17.410;2023-04-15T09:48:43;10.40;85.48
76291;DHT22;65100;46.884;17.410;2023-04-15T09:51:08;10.54;84.28
76291;DHT22;65100;46.884;17.410;2023-04-15T09:53:35;10.46;84.18
76291;DHT22;65100;46.884;17.410;2023-04-15T09:56:03;10.72;83.69
76291;DHT22;65100;46.884;17.410;2023-04-15T09:58:33;10.87;84.05
76291;DHT22;65100;46.884;17.410;2023-04-15T10:01:01;11.10;84.11
76291;DHT22;65100;46.884;17.410;2023-04-15T10:03:28;11.19;81.46
76291;DHT22;65100;46.884;17.410;2023-04-15T10:05:56;11.25;82.11
76291;DHT22;65100;46.884;17.410;2023-04-15T10:08:23;11.26;81.15
76291;DHT22;65100;46.884;17.410;2023-04-15T10:10:50;11.21;81.88
76291;DHT22;65100;46.884;17.410;2023-04-15T10:13:23;11.35;79.76
76291;DHT22;65100;46.884;17.410;2023-04-15T10:16:00;10.94;83.35
76291;DHT22;65100;46.884;17.410;2023-04-15T10:18:31;11.11;81.43
76291;DHT22;65100;46.884;17.410;2023-04-15T10:20:59;11.25;81.87
76291;DHT22;65100;46.884;17.410;2023-04-15T10:23:25;11.32;81.01
76291;DHT22;65100;46.884;17.410;2023-04-15T10:25:52;11.45;82.45
76291;DHT22;65100;46.884;17.410;2023-04-15T10:28:21;11.78;82.45
76291;DHT22;65100;46.884;17.410;2023-04-15T10:30:49;11.80;81.02
76291;DHT22;65100;46.884;17.410;2023-04-15T10:33:19;11.62;80.56
76291;DHT22;65100;46.884;17.410;2023-04-15T10:35:46;11.65;78.50
76291;DHT22;65100;46.884;17.410;2023-04-15T10:41:27;11.42;82.15
76291;DHT22;65100;46.884;17.410;2023-04-15T10:46:43;11.69;80.07
76291;DHT22;65100;46.884;17.410;2023-04-15T10:49:17;11.55;80.51
76291;DHT22;65100;46.884;17.410;2023-04-15T10:51:52;11.51;80.55
76291;DHT22;65100;46.884;17.410;2023-04-15T10:56:51;11.24;80.49
76291;DHT22;65100;46.884;17.410;2023-04-15T10:59:17;11.26;80.28
76291;DHT22;65100;46.884;17.410;2023-04-15T11:01:55;11.01;82.71
76291;DHT22;65100;46.884;17.410;2023-04-15T11:04:53;10.80;85.26
76291;DHT22;65100;46.884;17.410;2023-04-15T11:07:37;10.67;84.90
76291;DHT22;65100;46.884;17.410;2023-04-15T11:15:36;10.84;86.15
76291;DHT22;65100;46.884;17.410;2023-04-15T11:20:44;11.36;84.08
76291;DHT22;65100;46.884;17.410;2023-04-15T11:23:10;11.55;84.93
76291;DHT22;65100;46.884;17.410;2023-04-15T11:25:36;11.70;82.62
76291;DHT22;65100;46.884;17.410;2023-04-15T11:28:02;11.66;80.94
76291;DHT22;65100;46.884;17.410;2023-04-15T11:30:30;11.51;82.14
76291;DHT22;65100;46.884;17.410;2023-04-15T11:33:01;11.58;81.39
76291;DHT22;65100;46.884;17.410;2023-04-15T11:35:29;11.46;80.86
76291;DHT22;65100;46.884;17.410;2023-04-15T11:37:54;11.32;81.83
76291;DHT22;65100;46.884;17.410;2023-04-15T11:40:28;11.15;81.71
76291;DHT22;65100;46.884;17.410;2023-04-15T11:43:15;10.91;83.16
76291;DHT22;65100;46.884;17.410;2023-04-15T11:46:02;10.65;83.23
76291;DHT22;65100;46.884;17.410;2023-04-15T11:48:29;10.44;84.69
76291;DHT22;65100;46.884;17.410;2023-04-15T11:53:20;10.20;87.21
76291;DHT22;65100;46.884;17.410;2023-04-15T11:55:47;10.10;87.06
76291;DHT22;65100;46.884;17.410;2023-04-15T11:58:14;10.14;86.32
76291;DHT22;65100;46.884;17.410;2023-04-15T12:00:48;9.87;85.78
76291;DHT22;65100;46.884;17.410;2023-04-15T12:06:07;9.80;87.60
76291;DHT22;65100;46.884;17.410;2023-04-15T12:14:11;10.34;86.16
76291;DHT22;65100;46.884;17.410;2023-04-15T12:16:43;10.60;83.97
76291;DHT22;65100;46.884;17.410;2023-04-15T12:19:11;10.60;84.19
76291;DHT22;65100;46.884;17.410;2023-04-15T12:21:39;10.77;82.15
76291;DHT22;65100;46.884;17.410;2023-04-15T12:24:09;10.58;81.75
76291;DHT22;65100;46.884;17.410;2023-04-15T12:29:06;10.61;83.49
76291;DHT22;65100;46.884;17.410;2023-04-15T12:31:33;10.80;81.53
76291;DHT22;65100;46.884;17.410;2023-04-15T12:34:00;10.47;83.16
76291;DHT22;65100;46.884;17.410;2023-04-15T12:36:27;10.78;82.18
76291;DHT22;65100;46.884;17.410;2023-04-15T12:38:52;10.92;82.29
76291;DHT22;65100;46.884;17.410;2023-04-15T12:41:19;11.01;80.74
76291;DHT22;65100;46.884;17.410;2023-04-15T12:43:45;11.18;80.16
76291;DHT22;65100;46.884;17.410;2023-04-15T12:46:11;11.49;79.35
76291;DHT22;65100;46.884;17.410;2023-04-15T12:48:37;11.28;79.46
76291;DHT22;65100;46.884;17.410;2023-04-15T12:51:03;11.31;79.33
76291;DHT22;65100;46.884;17.410;2023-04-15T12:53:28;11.19;79.25
76291;DHT22;65100;46.884;17.410;2023-04-15T12:55:54;11.46;79.61
76291;DHT22;65100;46.884;17.410;2023-04-15T12:58:20;11.58;78.80
76291;DHT22;65100;46.884;17.410;2023-04-15T13:00:46;11.49;80.10
76291;DHT22;65100;46.884;17.410;2023-04-15T13:03:11;11.65;77.48
76291;DHT22;65100;46.884;17.410;2023-04-15T13:05:37;11.69;76.25
76291;DHT22;65100;46.884;17.410;2023-04-15T13:08:04;11.61;76.42
76291;DHT22;65100;46.884;17.410;2023-04-15T13:10:30;11.56;77.25
76291;DHT22;65100;46.884;17.410;2023-04-15T13:12:56;11.80;79.47
76291;DHT22;65100;46.884;17.410;2023-04-15T13:15:22;11.82;77.15
76291;DHT22;65100;46.884;17.410;2023-04-15T13:17:48;12.00;77.08
76291;DHT22;65100;46.884;17.410;2023-04-15T13:20:14;11.89;77.54
76291;DHT22;65100;46.884;17.410;2023-04-15T13:22:39;12.20;76.75
76291;DHT22;65100;46.884;17.410;2023-04-15T13:25:06;12.24;75.17
76291;DHT22;65100;46.884;17.410;2023-04-15T13:27:32;12.06;76.58
76291;DHT22;65100;46.884;17.410;2023-04-15T13:29:58;12.03;78.34
76291;DHT22;65100;46.884;17.410;2023-04-15T13:32:24;12.10;79.20
76291;DHT22;65100;46.884;17.410;2023-04-15T13:34:50;11.96;77.81
76291;DHT22;65100;46.884;17.410;2023-04-15T13:37:15;11.90;78.62
76291;DHT22;65100;46.884;17.410;2023-04-15T13:39:41;12.16;78.71
76291;DHT22;65100;46.884;17.410;2023-04-15T13:42:06;12.30;77.07
76291;DHT22;65100;46.884;17.410;2023-04-15T13:44:32;12.24;78.87
76291;DHT22;65100;46.884;17.410;2023-04-15T13:46:57;11.97;78.13
76291;DHT22;65100;46.884;17.410;2023-04-15T13:49:23;11.92;76.29
76291;DHT22;65100;46.884;17.410;2023-04-15T13:51:49;11.61;75.97
76291;DHT22;65100;46.884;17.410;2023-04-15T13:54:14;11.39;79.02
76291;DHT22;65100;46.884;17.410;2023-04-15T13:56:40;11.35;78.15
76291;DHT22;65100;46.884;17.410;2023-04-15T13:59:06;11.28;78.54
76291;DHT22;65100;46.884;17.410;2023-04-15T14:01:33;11.21;79.58
76291;DHT22;65100;46.884;17.410;2023-04-15T14:03:59;11.25;78.57
76291;DHT22;65100;46.884;17.410;2023-04-15T14:06:25;11.35;78.74
76291;DHT22;65100;46.884;17.410;2023-04-15T14:08:52;11.14;78.31
76291;DHT22;65100;46.884;17.410;2023-04-15T14:11:17;11.14;80.14
76291;DHT22;65100;46.884;17.410;2023-04-15T14:13:43;11.54;79.90
76291;DHT22;65100;46.884;17.410;2023-04-15T14:16:09;11.56;78.30
76291;DHT22;65100;46.884;17.410;2023-04-15T14:18:34;11.45;79.22
76291;DHT22;65100;46.884;17.410;2023-04-15T14:21:01;11.32;79.71
76291;DHT22;65100;46.884;17.410;2023-04-15T14:23:26;11.38;79.00
76291;DHT22;65100;46.884;17.410;2023-04-15T14:25:52;11.38;79.39
76291;DHT22;65100;46.884;17.410;2023-04-15T14:28:17;11.28;80.12
76291;DHT22;65100;46.884;17.410;2023-04-15T14:30:43;11.49;79.86
76291;DHT22;65100;46.884;17.410;2023-04-15T14:33:08;11.73;80.22
76291;DHT22;65100;46.884;17.410;2023-04-15T14:35:34;11.75;78.92
76291;DHT22;65100;46.884;17.410;2023-04-15T14:38:00;11.68;78.19
76291;DHT22;65100;46.884;17.410;2023-04-15T14:40:25;11.70;79.03
76291;DHT22;65100;46.884;17.410;2023-04-15T14:42:51;11.70;78.62
76291;DHT22;65100;46.884;17.410;2023-04-15T14:45:16;11.69;78.65
76291;DHT22;65100;46.884;17.410;2023-04-15T14:47:42;11.65;78.51
76291;DHT22;65100;46.884;17.410;2023-04-15T14:50:08;11.65;78.96
76291;DHT22;65100;46.884;17.410;2023-04-15T14:52:34;11.69;79.72
76291;DHT22;65100;46.884;17.410;2023-04-15T14:55:09;11.79;79.64
76291;DHT22;65100;46.884;17.410;2023-04-15T14:57:39;11.63;79.95
76291;DHT22;65100;46.884;17.410;2023-04-15T15:00:05;11.42;79.76
76291;DHT22;65100;46.884;17.410;2023-04-15T15:02:35;11.63;76.21
76291;DHT22;65100;46.884;17.410;2023-04-15T15:05:01;11.52;77.28
76291;DHT22;65100;46.884;17.410;2023-04-15T15:07:27;11.42;76.68
76291;DHT22;65100;46.884;17.410;2023-04-15T15:09:53;11.58;76.30
76291;DHT22;65100;46.884;17.410;2023-04-15T15:12:19;11.65;74.74
76291;DHT22;65100;46.884;17.410;2023-04-15T15:14:46;11.55;75.22
76291;DHT22;65100;46.884;17.410;2023-04-15T15:17:12;11.58;76.05
76291;DHT22;65100;46.884;17.410;2023-04-15T15:19:37;11.55;75.42
76291;DHT22;65100;46.884;17.410;2023-04-15T15:22:03;11.51;74.77
76291;DHT22;65100;46.884;17.410;2023-04-15T15:24:28;11.46;74.61
76291;DHT22;65100;46.884;17.410;2023-04-15T15:26:54;11.54;74.42
76291;DHT22;65100;46.884;17.410;2023-04-15T15:29:19;11.40;74.74
76291;DHT22;65100;46.884;17.410;2023-04-15T15:31:45;11.45;74.59
76291;DHT22;65100;46.884;17.410;2023-04-15T15:34:10;11.58;74.85
76291;DHT22;65100;46.884;17.410;2023-04-15T15:36:36;11.48;74.18
76291;DHT22;65100;46.884;17.410;2023-04-15T15:39:02;11.54;74.82
76291;DHT22;65100;46.884;17.410;2023-04-15T15:41:27;11.24;76.43
76291;DHT22;65100;46.884;17.410;2023-04-15T15:43:53;11.28;76.29
76291;DHT22;65100;46.884;17.410;2023-04-15T15:46:18;11.32;76.55
76291;DHT22;65100;46.884;17.410;2023-04-15T15:48:44;11.28;75.01
76291;DHT22;65100;46.884;17.410;2023-04-15T15:51:10;11.16;75.97